Time;durP1;ratioP1;P1;durP2;ratioP2;P2;SDS_P1;SDS_P2;PMS_P1;PMS_P2;Temp;Humidity;BMP_temperature;BMP_pressure;BME280_temperature;BME280_humidity;BME280_pressure;Samples;Min_cycle;Max_cycle;Signal;HPM_P1;HPM_P2
2022/02/04 00:10:06;;;;;;;5.47;4.40;;;6.40;99.90;6.30;100089.00;;;;4993279;28;88573;-74
2022/02/04 00:23:17;;;;;;;7.87;5.20;;;6.40;99.90;6.30;100065.00;;;;5003962;27;104502;-70
2022/02/04 00:28:15;;;;;;;7.07;5.63;;;6.40;99.90;6.30;100067.00;;;;5014667;27;87070;-73
2022/02/04 00:30:47;;;;;;;8.30;5.53;;;6.50;99.90;6.30;100080.00;;;;5018460;27;87839;-73
2022/02/04 00:33:14;;;;;;;9.03;5.23;;;6.50;99.90;6.40;100081.00;;;;5032714;27;90969;-72
2022/02/04 00:38:22;;;;;;;5.97;5.30;;;6.50;99.90;6.40;100073.00;;;;4996057;27;87658;-72
2022/02/04 00:40:52;;;;;;;5.37;4.43;;;6.50;99.90;6.40;100077.00;;;;4995877;28;87919;-74
2022/02/04 00:43:19;;;;;;;9.47;5.53;;;6.50;99.90;6.40;100075.00;;;;4996677;27;88130;-72
2022/02/04 00:45:54;;;;;;;10.00;6.50;;;6.50;99.90;6.40;100073.00;;;;4998220;28;87926;-72
2022/02/04 00:51:02;;;;;;;6.80;4.87;;;6.60;99.90;6.50;100074.00;;;;4994134;28;104777;-71
2022/02/04 00:56:12;;;;;;;7.03;4.50;;;6.60;99.90;6.50;100065.00;;;;4994586;28;94445;-71
2022/02/04 01:26:11;;;;;;;7.33;4.90;;;6.70;99.90;6.60;100065.00;;;;4995358;27;87837;-72
2022/02/04 01:28:40;;;;;;;8.77;5.40;;;6.80;99.90;6.60;100063.00;;;;4996870;28;88936;-72
2022/02/04 01:31:06;;;;;;;8.73;5.13;;;6.70;99.90;6.70;100075.00;;;;4995807;28;87877;-72
2022/02/04 01:33:33;;;;;;;9.17;5.40;;;6.80;99.90;6.60;100057.00;;;;4995657;27;88238;-73
2022/02/04 01:35:59;;;;;;;8.03;4.90;;;6.80;99.90;6.70;100068.00;;;;4996238;28;88292;-73
2022/02/04 01:38:28;;;;;;;7.23;5.90;;;6.80;99.90;6.70;100068.00;;;;5007314;27;87993;-73
2022/02/04 01:40:55;;;;;;;9.43;6.30;;;6.70;99.90;6.60;100067.00;;;;5016057;27;88097;-73
2022/02/04 01:43:22;;;;;;;8.87;5.67;;;6.80;99.90;6.70;100079.00;;;;5016070;27;99521;-73
2022/02/04 01:46:02;;;;;;;8.80;5.93;;;6.80;99.90;6.60;100079.00;;;;5013802;27;89720;-73
2022/02/04 01:48:29;;;;;;;9.90;6.07;;;6.80;99.90;6.70;100079.00;;;;5014968;27;87762;-73
2022/02/04 01:50:55;;;;;;;7.93;6.33;;;6.80;99.90;6.70;100077.00;;;;5031794;27;87989;-74
2022/02/04 01:53:28;;;;;;;7.67;5.97;;;6.80;99.90;6.70;100082.00;;;;5012317;27;118584;-75
2022/02/04 01:55:56;;;;;;;10.93;6.70;;;6.00;99.90;6.70;100076.00;;;;5015270;27;88711;-75
2022/02/04 01:58:22;;;;;;;8.07;5.57;;;6.80;99.90;6.70;100084.00;;;;5014504;27;87952;-75
2022/02/04 02:00:48;;;;;;;9.27;5.60;;;6.70;99.90;6.70;100089.00;;;;5014516;27;89648;-74
2022/02/04 02:03:14;;;;;;;8.57;5.87;;;6.80;99.90;6.70;100085.00;;;;5009560;27;117250;-75
2022/02/04 02:05:40;;;;;;;8.57;5.53;;;6.90;99.90;6.60;100086.00;;;;5014384;27;87943;-75
2022/02/04 02:08:09;;;;;;;7.60;5.73;;;6.80;99.90;6.70;100070.00;;;;5013638;27;109571;-75
2022/02/04 02:10:36;;;;;;;9.10;5.60;;;6.80;99.90;6.60;100082.00;;;;5015174;27;87205;-75
2022/02/04 02:40:59;;;;;;;8.40;6.43;;;6.60;99.90;6.50;100082.00;;;;4992980;28;93951;-76
2022/02/04 02:43:19;;;;;;;10.10;6.87;;;6.60;99.90;6.50;100095.00;;;;4998594;27;87530;-75
2022/02/04 02:49:00;;;;;;;8.30;5.67;;;6.60;99.90;6.40;100089.00;;;;5010324;27;87923;-76
2022/02/04 02:51:51;;;;;;;10.30;6.67;;;6.80;99.90;6.40;100092.00;;;;5013937;27;87823;-76
2022/02/04 02:57:06;;;;;;;9.20;5.73;;;6.50;99.90;6.40;100091.00;;;;5012645;27;106575;-76
2022/02/04 02:59:36;;;;;;;10.37;6.37;;;6.50;99.90;6.40;100097.00;;;;5014788;27;88952;-76
2022/02/04 03:02:02;;;;;;;10.10;6.70;;;6.60;99.90;6.40;100092.00;;;;5014232;27;87949;-76
2022/02/04 03:04:27;;;;;;;8.57;6.10;;;6.50;99.90;6.40;100094.00;;;;5013272;27;87225;-75
2022/02/04 03:06:53;;;;;;;11.80;5.80;;;6.50;99.90;6.40;100077.00;;;;5006495;27;95233;-75
2022/02/04 03:09:19;;;;;;;8.50;6.27;;;6.50;99.90;6.40;100098.00;;;;4994122;28;117868;-75
2022/02/04 03:11:44;;;;;;;9.33;6.20;;;6.50;99.90;6.30;100083.00;;;;5002770;27;110727;-75
2022/02/04 03:14:11;;;;;;;11.80;6.30;;;6.50;99.90;6.30;100087.00;;;;5012157;27;108367;-75
2022/02/04 03:16:37;;;;;;;11.73;7.47;;;6.50;99.90;6.30;100090.00;;;;5013059;27;87922;-75
2022/02/04 03:19:05;;;;;;;9.00;6.00;;;6.60;99.90;6.30;100091.00;;;;5014989;27;88371;-74
2022/02/04 03:21:44;;;;;;;13.00;7.30;;;6.40;99.90;6.30;100083.00;;;;5013942;27;87815;-74
2022/02/04 03:24:14;;;;;;;9.83;7.10;;;6.40;99.90;6.30;100092.00;;;;5015518;27;87921;-74
2022/02/04 03:29:06;;;;;;;9.83;7.17;;;6.40;99.90;6.30;100095.00;;;;4997903;27;87995;-74
2022/02/04 03:31:38;;;;;;;12.47;7.07;;;6.40;99.90;6.30;100094.00;;;;4995215;27;87680;-74
2022/02/04 03:34:04;;;;;;;13.87;8.20;;;6.40;99.90;6.20;100094.00;;;;4995607;27;87563;-75
2022/02/04 03:36:30;;;;;;;13.10;6.90;;;6.40;99.90;6.20;100097.00;;;;4992564;28;89247;-74
2022/02/04 03:38:56;;;;;;;13.43;7.40;;;6.40;99.90;6.30;100104.00;;;;4995376;27;102278;-75
2022/02/04 03:41:22;;;;;;;14.00;7.83;;;6.40;99.90;6.20;100096.00;;;;4992633;28;110295;-75
2022/02/04 03:43:47;;;;;;;14.63;8.10;;;6.40;99.90;6.20;100104.00;;;;4995716;27;89392;-73
2022/02/04 03:46:13;;;;;;;10.33;7.13;;;6.40;99.90;6.20;100098.00;;;;5008987;27;117192;-72
2022/02/04 03:48:39;;;;;;;12.17;7.17;;;6.40;99.90;6.20;100104.00;;;;5008488;27;87904;-72
2022/02/04 03:51:04;;;;;;;9.23;6.60;;;6.40;99.90;6.20;100097.00;;;;5014419;27;111212;-72
2022/02/04 03:53:30;;;;;;;10.57;7.77;;;6.40;99.90;6.20;100086.00;;;;5014385;27;108846;-71
2022/02/04 03:55:56;;;;;;;11.93;7.00;;;6.40;99.90;6.20;100084.00;;;;5030952;27;90111;-71
2022/02/04 03:58:22;;;;;;;10.57;7.27;;;6.40;99.90;6.20;100090.00;;;;5013640;27;88739;-71
2022/02/04 04:00:48;;;;;;;10.60;6.57;;;6.40;99.90;6.20;100092.00;;;;5015258;27;88627;-75
2022/02/04 04:03:14;;;;;;;9.83;7.27;;;6.40;99.90;6.20;100092.00;;;;5009629;27;87922;-72
2022/02/04 04:05:45;;;;;;;12.30;7.70;;;6.30;99.90;6.20;100092.00;;;;5014480;27;118710;-72
2022/02/04 04:08:13;;;;;;;14.97;6.80;;;6.40;99.90;6.20;100094.00;;;;4997444;27;88583;-71
2022/02/04 04:10:40;;;;;;;9.13;6.17;;;6.30;99.90;6.20;100092.00;;;;4995528;28;87599;-71
2022/02/04 04:13:07;;;;;;;13.07;7.87;;;6.30;99.90;6.30;100086.00;;;;4995508;28;87797;-73
2022/02/04 04:15:34;;;;;;;16.80;7.43;;;6.40;99.90;6.20;100095.00;;;;4994654;28;87823;-75
2022/02/04 04:18:00;;;;;;;13.00;7.57;;;6.40;99.90;6.20;100090.00;;;;5001671;27;88639;-75
2022/02/04 04:20:27;;;;;;;11.50;7.13;;;6.30;99.90;6.20;100098.00;;;;5014471;27;87695;-75
2022/02/04 04:22:56;;;;;;;10.50;7.30;;;6.40;99.90;6.20;100091.00;;;;5013271;27;87883;-76
2022/02/04 04:25:22;;;;;;;11.50;7.73;;;6.40;99.90;6.20;100096.00;;;;5012115;27;88611;-76
2022/02/04 04:27:52;;;;;;;11.43;7.30;;;6.30;99.90;6.20;100094.00;;;;5011812;27;117005;-74
2022/02/04 04:30:21;;;;;;;13.97;7.40;;;6.30;99.90;6.20;100100.00;;;;5012918;27;88148;-73
2022/02/04 04:32:47;;;;;;;11.53;6.97;;;6.30;99.90;6.20;100093.00;;;;5014616;27;87786;-73
2022/02/04 04:35:16;;;;;;;10.03;6.57;;;6.30;99.90;6.20;100104.00;;;;5007352;27;88154;-74
2022/02/04 04:37:49;;;;;;;11.03;6.83;;;6.30;99.90;6.20;100107.00;;;;4995149;27;88214;-74
2022/02/04 04:45:41;;;;;;;10.70;6.43;;;6.30;99.90;6.10;100104.00;;;;4989592;28;87815;-75
2022/02/04 05:29:11;;;;;;;8.43;5.37;;;6.20;99.90;6.00;100093.00;;;;5017196;27;87921;-71
2022/02/04 05:31:36;;;;;;;8.57;5.03;;;6.10;99.90;6.00;100097.00;;;;5011917;27;88807;-72
2022/02/04 05:34:03;;;;;;;6.97;4.90;;;6.10;99.90;6.00;100097.00;;;;4996877;27;111067;-72
2022/02/04 05:36:30;;;;;;;8.87;5.33;;;6.10;99.90;6.00;100097.00;;;;4997886;28;87056;-72
2022/02/04 05:38:56;;;;;;;10.90;6.70;;;6.10;99.90;6.00;100095.00;;;;4997378;27;88859;-73
2022/02/04 05:41:29;;;;;;;9.57;5.87;;;6.00;99.90;6.00;100095.00;;;;4996727;27;88836;-71
2022/02/04 05:43:58;;;;;;;9.20;5.70;;;6.10;99.90;5.90;100094.00;;;;4996863;28;88655;-74
2022/02/04 05:46:31;;;;;;;8.70;5.37;;;6.10;99.90;5.90;100088.00;;;;4995361;27;88146;-73
2022/02/04 05:48:59;;;;;;;7.83;5.23;;;6.00;99.90;5.90;100087.00;;;;5003594;27;89717;-72
2022/02/04 06:04:20;;;;;;;6.57;4.43;;;6.00;99.90;5.80;100100.00;;;;5000786;27;99918;-75
2022/02/04 06:10:02;;;;;;;5.40;3.77;;;6.00;99.90;5.80;100097.00;;;;4992117;27;89087;-75
2022/02/04 06:22:46;;;;;;;8.23;4.73;;;5.90;99.90;5.70;100109.00;;;;4994289;27;88005;-72
2022/02/04 06:25:12;;;;;;;6.47;4.60;;;5.90;99.90;5.70;100109.00;;;;4997478;27;87978;-75
2022/02/04 06:27:38;;;;;;;7.20;4.33;;;5.80;99.90;5.70;100126.00;;;;4997439;27;86927;-73
2022/02/04 06:30:05;;;;;;;5.27;4.37;;;5.80;99.90;5.70;100119.00;;;;4994080;28;102466;-73
2022/02/04 06:32:31;;;;;;;10.23;4.93;;;5.90;99.90;5.70;100122.00;;;;4998370;27;100491;-72
2022/02/04 06:34:59;;;;;;;5.77;4.33;;;5.90;99.90;5.70;100125.00;;;;5016547;27;88798;-70
2022/02/04 06:37:25;;;;;;;8.57;4.37;;;5.80;99.90;5.70;100124.00;;;;5014588;27;87975;-72
2022/02/04 06:39:51;;;;;;;7.03;4.27;;;5.80;99.90;5.70;100122.00;;;;5013002;27;87860;-71
2022/02/04 06:42:25;;;;;;;6.77;3.93;;;5.80;99.90;5.60;100136.00;;;;5016159;27;88753;-75
2022/02/04 06:44:52;;;;;;;7.30;4.30;;;5.80;99.90;5.70;100133.00;;;;5015123;27;87682;-71
2022/02/04 06:47:18;;;;;;;9.23;4.93;;;5.80;99.90;5.70;100136.00;;;;5016023;27;95896;-73
2022/02/04 06:49:46;;;;;;;6.67;4.20;;;5.80;99.90;5.70;100136.00;;;;5016051;27;90185;-72
2022/02/04 06:52:12;;;;;;;6.57;4.03;;;5.80;99.90;5.70;100137.00;;;;5015552;27;99878;-74
2022/02/04 06:54:38;;;;;;;7.73;3.73;;;5.80;99.90;5.70;100130.00;;;;5002326;27;87740;-72
2022/02/04 06:57:04;;;;;;;7.70;4.20;;;5.80;99.90;5.70;100138.00;;;;5015811;27;94127;-71
2022/02/04 06:59:30;;;;;;;5.77;4.23;;;5.80;99.90;5.60;100131.00;;;;5013793;27;88626;-72
2022/02/04 07:01:56;;;;;;;12.23;4.60;;;5.80;99.90;5.70;100146.00;;;;5002500;27;89461;-75
2022/02/04 07:04:22;;;;;;;7.20;3.60;;;5.80;99.90;5.70;100137.00;;;;5015991;27;92931;-76
2022/02/04 07:06:54;;;;;;;5.73;3.97;;;5.80;99.90;5.70;100145.00;;;;5002777;27;87583;-75
2022/02/04 07:17:30;;;;;;;10.70;5.33;;;5.80;99.90;5.70;100137.00;;;;5016368;27;87261;-76
2022/02/04 07:19:56;;;;;;;5.97;4.10;;;5.90;99.90;5.70;100126.00;;;;4999423;27;89919;-75
2022/02/04 07:22:26;;;;;;;6.00;3.50;;;5.80;99.90;5.70;100132.00;;;;5014617;27;87889;-72
2022/02/04 07:24:56;;;;;;;6.10;3.77;;;5.80;99.90;5.70;100143.00;;;;5013442;27;88790;-73
2022/02/04 07:27:23;;;;;;;7.27;4.73;;;5.90;99.90;5.80;100139.00;;;;5015937;27;87718;-72
2022/02/04 07:29:52;;;;;;;5.37;3.07;;;5.80;99.90;5.80;100134.00;;;;5016147;27;88095;-72
2022/02/04 07:32:31;;;;;;;5.47;3.70;;;5.80;99.90;5.80;100146.00;;;;5013953;27;88385;-72
2022/02/04 07:42:57;;;;;;;5.27;3.53;;;6.00;99.90;5.90;100144.00;;;;5013355;27;87564;-75
2022/02/04 07:45:23;;;;;;;5.33;4.13;;;6.00;99.90;5.90;100150.00;;;;5014448;27;111057;-71
2022/02/04 07:47:50;;;;;;;10.77;4.27;;;6.50;99.90;5.90;100139.00;;;;5013844;27;87918;-72
2022/02/04 07:50:21;;;;;;;7.47;4.03;;;6.10;99.90;6.00;100144.00;;;;5015091;27;89289;-73
2022/02/04 07:52:56;;;;;;;4.53;3.07;;;6.00;99.90;6.00;100149.00;;;;5012985;27;88198;-71
2022/02/04 07:55:23;;;;;;;5.37;3.07;;;6.20;99.90;6.00;100147.00;;;;5015814;27;94219;-70
2022/02/04 07:57:49;;;;;;;4.40;3.30;;;6.10;99.90;6.00;100141.00;;;;5015462;27;87641;-77
2022/02/04 08:00:17;;;;;;;4.23;2.97;;;6.20;99.90;6.10;100147.00;;;;5013195;27;88195;-71
2022/02/04 08:02:47;;;;;;;5.03;3.17;;;6.10;99.90;6.10;100142.00;;;;5013342;27;87980;-72
2022/02/04 08:05:18;;;;;;;3.53;2.50;;;6.20;99.90;6.10;100142.00;;;;5015811;27;87835;-72
2022/02/04 08:11:14;;;;;;;4.33;3.17;;;6.30;99.90;6.10;100149.00;;;;5010106;27;87974;-72
2022/02/04 08:22:26;;;;;;;4.83;3.13;;;7.20;99.90;6.20;100142.00;;;;4993128;28;87775;-77
2022/02/04 08:34:46;;;;;;;5.40;3.10;;;6.50;99.90;6.40;100140.00;;;;5015281;27;87158;-73
2022/02/04 08:50:34;;;;;;;3.00;2.17;;;6.70;99.90;6.70;100139.00;;;;4993457;28;87944;-73
2022/02/04 08:53:36;;;;;;;3.50;2.43;;;6.70;99.90;6.70;100136.00;;;;4997609;28;88384;-77
2022/02/04 08:55:57;;;;;;;4.73;2.83;;;6.80;99.90;6.80;100140.00;;;;4997497;27;87715;-73
2022/02/04 09:01:05;;;;;;;3.50;2.20;;;6.90;99.90;6.90;100150.00;;;;4996550;28;86955;-77
2022/02/04 09:06:14;;;;;;;6.40;2.87;;;7.00;99.90;6.90;100147.00;;;;5016731;27;87776;-73
2022/02/04 09:08:44;;;;;;;5.50;2.60;;;7.00;99.90;7.00;100138.00;;;;5017159;27;88633;-75
2022/02/04 09:11:15;;;;;;;5.23;3.20;;;7.00;99.90;7.00;100145.00;;;;5012033;27;87747;-74
2022/02/04 09:19:18;;;;;;;5.63;2.80;;;7.20;99.90;7.10;100127.00;;;;5013887;27;87616;-74
2022/02/04 09:24:12;;;;;;;3.70;2.10;;;7.40;99.90;7.20;100119.00;;;;4996012;27;106712;-76
2022/02/04 09:26:39;;;;;;;4.53;2.07;;;7.30;99.90;7.20;100116.00;;;;5012103;27;91425;-75
2022/02/04 09:29:05;;;;;;;3.33;2.30;;;7.30;99.90;7.30;100110.00;;;;5000462;27;87764;-75
2022/02/04 09:31:34;;;;;;;3.87;2.67;;;7.30;99.90;7.30;100110.00;;;;5008152;27;90705;-75
2022/02/04 09:33:59;;;;;;;3.97;2.43;;;7.40;99.90;7.40;100112.00;;;;4998898;27;89190;-74
2022/02/04 09:36:25;;;;;;;2.57;2.20;;;7.50;99.90;7.50;100121.00;;;;5016225;27;118836;-76
2022/02/04 09:38:51;;;;;;;3.20;2.50;;;7.50;99.90;7.60;100124.00;;;;5017096;27;92962;-73
2022/02/04 09:41:20;;;;;;;3.73;1.80;;;7.60;99.90;7.70;100117.00;;;;5017215;27;98364;-76
2022/02/04 09:43:47;;;;;;;2.67;2.13;;;7.70;99.90;7.90;100110.00;;;;5012702;27;88194;-73
2022/02/04 09:46:14;;;;;;;2.47;1.80;;;7.80;99.90;7.90;100118.00;;;;5014687;27;94790;-75
2022/02/04 09:48:43;;;;;;;3.33;2.00;;;8.00;99.90;8.00;100116.00;;;;5015395;27;87580;-77
2022/02/04 09:51:10;;;;;;;3.00;2.20;;;8.00;99.90;8.10;100114.00;;;;5003462;27;87252;-74
2022/02/04 10:15:52;;;;;;;1.90;1.53;;;8.00;99.90;8.00;100101.00;;;;5010691;27;87674;-73
2022/02/04 10:21:28;;;;;;;3.37;1.57;;;8.10;99.90;8.10;100100.00;;;;4966146;28;87991;-72
2022/02/04 10:23:58;;;;;;;2.53;1.50;;;8.10;99.90;8.10;100105.00;;;;5010420;27;88471;-71
2022/02/04 10:26:25;;;;;;;2.77;2.03;;;8.10;99.90;8.10;100097.00;;;;5016372;27;89772;-72
2022/02/04 10:28:53;;;;;;;3.33;2.30;;;8.10;99.90;8.10;100095.00;;;;5016102;27;103362;-72
2022/02/04 10:31:25;;;;;;;4.60;2.27;;;8.20;99.90;8.00;100093.00;;;;5014934;27;87766;-72
2022/02/04 10:34:12;;;;;;;5.60;2.97;;;8.20;99.90;8.00;100085.00;;;;5010967;27;87737;-72
2022/02/04 10:36:53;;;;;;;2.43;1.70;;;8.10;99.90;7.90;100095.00;;;;4997230;28;88040;-73
2022/02/04 10:59:22;;;;;;;2.10;1.20;;;7.80;99.90;7.70;100074.00;;;;4993952;27;88024;-72
2022/02/04 11:04:38;;;;;;;1.53;1.00;;;7.80;99.90;7.90;100057.00;;;;5015283;27;88000;-70
2022/02/04 11:07:47;;;;;;;1.27;1.07;;;7.90;99.90;7.90;100060.00;;;;5031510;27;87798;-70
2022/02/04 11:47:54;;;;;;;2.80;0.90;;;8.70;99.90;8.70;100017.00;;;;4994091;27;87738;-71
2022/02/04 11:52:42;;;;;;;1.67;1.03;;;8.70;99.90;8.70;100011.00;;;;4992086;27;87919;-72
2022/02/04 11:55:11;;;;;;;2.07;0.80;;;8.70;99.90;8.70;100010.00;;;;4992745;27;87530;-73
2022/02/04 11:57:55;;;;;;;2.40;1.10;;;8.70;99.90;8.70;99995.00;;;;4992580;27;88319;-72
2022/02/04 12:00:38;;;;;;;1.13;0.80;;;9.00;99.90;8.60;99997.00;;;;4998260;27;87812;-72
2022/02/04 12:03:29;;;;;;;1.43;1.00;;;8.70;99.90;8.60;99998.00;;;;4993117;27;87680;-71
2022/02/04 12:05:55;;;;;;;1.13;1.03;;;8.80;99.90;8.70;99997.00;;;;5001693;27;87938;-73
2022/02/04 12:08:24;;;;;;;1.40;1.00;;;8.70;99.90;8.70;99989.00;;;;4998818;27;107492;-73
2022/02/04 12:10:53;;;;;;;2.60;1.20;;;8.70;99.90;8.70;99977.00;;;;4993150;27;87801;-73
2022/02/04 12:13:21;;;;;;;1.80;1.00;;;8.70;99.90;8.70;99961.00;;;;4996363;27;87861;-72
2022/02/04 12:16:04;;;;;;;1.60;1.00;;;8.70;99.90;8.70;99970.00;;;;5003264;27;89725;-73
2022/02/04 12:18:45;;;;;;;1.57;1.10;;;8.80;99.90;8.70;99976.00;;;;4996067;27;87951;-73
2022/02/04 12:21:18;;;;;;;0.93;0.80;;;8.50;99.90;8.80;99971.00;;;;4996094;27;87820;-74
2022/02/04 12:23:49;;;;;;;1.03;0.70;;;8.80;99.90;8.80;99972.00;;;;4996119;27;87729;-74
2022/02/04 12:26:29;;;;;;;1.20;0.70;;;8.80;99.90;8.80;99954.00;;;;4995720;27;88415;-72
2022/02/04 12:29:05;;;;;;;0.73;0.63;;;8.90;99.90;8.90;99948.00;;;;5003321;27;88417;-72
2022/02/04 12:31:36;;;;;;;0.87;0.83;;;9.00;99.90;9.00;99955.00;;;;4995436;27;87796;-72
2022/02/04 12:34:02;;;;;;;1.40;0.63;;;9.00;99.90;9.00;99969.00;;;;4995103;27;86990;-73
2022/02/04 12:36:48;;;;;;;1.87;0.87;;;9.10;99.90;9.00;99958.00;;;;5004479;27;90210;-73
2022/02/04 12:39:19;;;;;;;0.97;0.80;;;9.00;99.90;9.00;99959.00;;;;5003871;27;90145;-72
2022/02/04 12:41:49;;;;;;;0.80;0.77;;;9.10;99.90;9.00;99957.00;;;;4999522;27;88972;-73
2022/02/04 12:44:28;;;;;;;1.57;1.10;;;9.10;99.90;8.90;99952.00;;;;4997597;27;87969;-71
2022/02/04 12:47:01;;;;;;;1.10;0.83;;;9.00;99.90;8.90;99921.00;;;;4994813;27;103445;-71
2022/02/04 12:49:30;;;;;;;0.93;0.67;;;9.00;99.90;8.90;99949.00;;;;4988424;27;89229;-72
2022/02/04 12:55:05;;;;;;;2.70;0.73;;;9.00;99.90;8.90;99939.00;;;;4993120;27;87602;-72
2022/02/04 12:57:37;;;;;;;0.70;0.60;;;9.00;99.90;8.90;99928.00;;;;5007765;27;88327;-73
2022/02/04 13:03:04;;;;;;;0.83;0.50;;;8.90;99.90;8.90;99920.00;;;;5007151;27;87925;-73
2022/02/04 13:11:13;;;;;;;0.67;0.67;;;9.00;99.90;8.90;99912.00;;;;4993640;27;88078;-72
2022/02/04 13:13:47;;;;;;;2.07;1.10;;;9.00;99.90;9.00;99897.00;;;;4996511;27;87851;-71
2022/02/04 13:16:28;;;;;;;1.70;0.93;;;9.10;99.90;9.10;99900.00;;;;5002740;27;87799;-71
2022/02/04 13:18:59;;;;;;;1.37;0.87;;;9.20;99.90;9.20;99909.00;;;;4994350;27;88899;-71
2022/02/04 13:21:25;;;;;;;1.63;0.80;;;9.30;99.90;9.20;99908.00;;;;5013422;27;90200;-71
2022/02/04 13:23:52;;;;;;;1.40;0.93;;;9.20;99.90;9.20;99890.00;;;;4989517;27;88361;-72
2022/02/04 13:26:24;;;;;;;0.97;0.80;;;9.20;99.90;9.20;99883.00;;;;4994778;27;87336;-72
2022/02/04 13:28:57;;;;;;;0.93;0.70;;;9.20;99.90;9.20;99873.00;;;;4994140;27;88546;-71
2022/02/04 13:31:22;;;;;;;0.70;0.70;;;9.30;99.90;9.10;99879.00;;;;5008944;27;87734;-71
2022/02/04 13:33:53;;;;;;;1.17;1.00;;;9.20;99.90;9.10;99879.00;;;;4997158;27;88785;-72
2022/02/04 13:36:47;;;;;;;0.80;0.70;;;9.20;99.90;9.10;99889.00;;;;5009193;27;87998;-71
2022/02/04 13:39:35;;;;;;;1.40;0.93;;;9.10;99.90;9.00;99879.00;;;;4993303;27;88277;-72
2022/02/04 13:42:16;;;;;;;1.43;1.13;;;9.10;99.90;9.00;99877.00;;;;4991185;27;89616;-71
2022/02/04 13:44:56;;;;;;;1.00;0.67;;;9.10;99.90;9.00;99873.00;;;;4997512;27;87773;-71
2022/02/04 13:47:48;;;;;;;0.97;0.50;;;9.10;99.90;9.00;99860.00;;;;4995424;27;88053;-71
2022/02/04 13:50:38;;;;;;;0.63;0.57;;;9.10;99.90;9.00;99864.00;;;;5006553;27;88279;-71
2022/02/04 13:53:18;;;;;;;0.50;0.50;;;9.00;99.90;9.00;99864.00;;;;4999507;27;87819;-71
2022/02/04 13:58:41;;;;;;;0.40;0.30;;;9.00;99.90;9.00;99859.00;;;;4992157;27;87805;-71
2022/02/04 14:01:24;;;;;;;0.77;0.50;;;9.00;99.90;9.00;99862.00;;;;4996921;27;89705;-70
2022/02/04 14:03:58;;;;;;;0.50;0.43;;;9.10;99.90;9.10;99850.00;;;;5007659;27;91457;-71
2022/02/04 14:06:27;;;;;;;0.70;0.40;;;9.10;99.90;9.10;99842.00;;;;5003570;27;87820;-71
2022/02/04 14:09:00;;;;;;;0.50;0.50;;;9.10;99.90;9.10;99846.00;;;;4998114;27;88107;-69
2022/02/04 14:11:36;;;;;;;0.30;0.30;;;9.10;99.90;9.00;99852.00;;;;5001601;27;88155;-71
2022/02/04 14:14:29;;;;;;;0.90;0.70;;;9.10;99.90;9.00;99842.00;;;;4997420;27;100897;-70
2022/02/04 14:17:04;;;;;;;2.63;0.80;;;9.10;99.90;9.00;99834.00;;;;4994373;27;95720;-71
2022/02/04 14:19:29;;;;;;;0.97;0.43;;;9.10;99.90;9.00;99836.00;;;;4994892;27;87094;-70
2022/02/04 14:21:57;;;;;;;0.37;0.37;;;9.10;99.90;9.00;99822.00;;;;5000445;27;117207;-70
2022/02/04 14:24:23;;;;;;;0.40;0.40;;;9.10;99.90;9.00;99821.00;;;;5001573;27;89431;-71
2022/02/04 14:26:57;;;;;;;0.33;0.33;;;9.10;99.90;9.00;99824.00;;;;5005026;27;88953;-71
2022/02/04 14:29:36;;;;;;;0.20;0.20;;;9.00;99.90;9.00;99822.00;;;;4994270;27;87770;-71
2022/02/04 14:32:16;;;;;;;0.20;0.20;;;9.10;99.90;9.00;99812.00;;;;4992292;27;88900;-70
2022/02/04 14:37:43;;;;;;;0.73;0.40;;;9.00;99.90;9.00;99819.00;;;;4990469;27;96464;-70
2022/02/04 14:49:22;;;;;;;0.67;0.37;;;9.00;99.90;8.90;99798.00;;;;4992500;27;88110;-72
2022/02/04 15:00:10;;;;;;;0.57;0.57;;;8.90;99.90;8.80;99790.00;;;;4994305;27;88075;-70
2022/02/04 15:02:41;;;;;;;0.40;0.40;;;8.90;99.90;8.80;99776.00;;;;4992925;27;87869;-71
2022/02/04 15:05:11;;;;;;;1.50;0.63;;;8.90;99.90;8.80;99771.00;;;;4991532;27;88482;-70
2022/02/04 15:07:39;;;;;;;0.50;0.40;;;8.80;99.90;8.80;99769.00;;;;4997898;27;87892;-69
2022/02/04 15:10:08;;;;;;;1.80;0.50;;;8.80;99.90;8.80;99771.00;;;;4991555;27;87885;-70
2022/02/04 15:12:34;;;;;;;0.30;0.30;;;8.80;99.90;8.80;99752.00;;;;5000124;27;87066;-70
2022/02/04 15:15:00;;;;;;;0.40;0.30;;;8.80;99.90;8.80;99761.00;;;;4991216;27;87968;-70
2022/02/04 15:17:25;;;;;;;1.63;0.60;;;8.80;99.90;8.80;99764.00;;;;4990741;27;117052;-71
2022/02/04 15:19:51;;;;;;;0.83;0.63;;;8.80;99.90;8.80;99764.00;;;;4994305;27;111622;-71
2022/02/04 15:22:22;;;;;;;0.30;0.30;;;8.80;99.90;8.80;99767.00;;;;4990625;27;109116;-70
2022/02/04 15:24:53;;;;;;;0.93;0.30;;;8.80;99.90;8.70;99757.00;;;;4999437;27;87952;-70
2022/02/04 15:27:19;;;;;;;0.40;0.30;;;8.80;99.90;8.70;99751.00;;;;4991077;27;89032;-72
2022/02/04 15:29:47;;;;;;;0.40;0.30;;;8.80;99.90;8.60;99753.00;;;;4994109;27;100744;-71
2022/02/04 15:32:13;;;;;;;1.13;0.67;;;8.80;99.90;8.60;99757.00;;;;4991549;27;87843;-71
2022/02/04 15:34:38;;;;;;;0.53;0.50;;;8.70;99.90;8.50;99749.00;;;;4989300;27;119336;-70
2022/02/04 15:37:04;;;;;;;1.10;0.40;;;8.60;99.90;8.40;99753.00;;;;4990743;27;117569;-71
2022/02/04 15:39:30;;;;;;;0.70;0.50;;;8.50;99.90;8.30;99745.00;;;;4996336;27;99171;-71
2022/02/04 15:42:05;;;;;;;0.40;0.30;;;8.40;99.90;8.20;99742.00;;;;4990550;27;88222;-71
2022/02/04 15:48:14;;;;;;;0.60;0.50;;;8.20;99.90;8.00;99721.00;;;;4995387;27;105973;-71
2022/02/04 16:05:55;;;;;;;0.63;0.60;;;8.00;99.90;8.00;99745.00;;;;5001222;27;88129;-70
2022/02/04 16:08:21;;;;;;;0.50;0.50;;;8.00;99.90;8.00;99739.00;;;;5003698;27;116391;-71
2022/02/04 16:11:13;;;;;;;0.30;0.30;;;8.10;99.90;8.00;99739.00;;;;4990968;27;88801;-70
2022/02/04 16:13:51;;;;;;;1.10;0.90;;;8.10;99.90;8.00;99726.00;;;;4995785;27;87914;-70
2022/02/04 16:18:57;;;;;;;0.67;0.60;;;8.10;99.90;8.10;99740.00;;;;4988551;27;103390;-70
2022/02/04 16:21:33;;;;;;;2.47;1.00;;;8.20;99.90;8.10;99733.00;;;;5005742;27;87954;-71
2022/02/04 16:29:09;;;;;;;0.30;0.30;;;8.20;99.90;8.10;99715.00;;;;5001752;27;87515;-71
2022/02/04 16:31:35;;;;;;;0.67;0.67;;;8.20;99.90;8.20;99702.00;;;;4990648;27;88081;-72
2022/02/04 16:34:08;;;;;;;0.60;0.40;;;8.20;99.90;8.20;99718.00;;;;4990069;27;87782;-70
2022/02/04 16:36:36;;;;;;;0.47;0.47;;;8.20;99.90;8.20;99705.00;;;;4990813;27;88920;-71
2022/02/04 16:39:03;;;;;;;0.60;0.40;;;8.20;99.90;8.20;99697.00;;;;4989710;27;88685;-71
2022/02/04 16:41:33;;;;;;;0.63;0.60;;;8.20;99.90;8.20;99712.00;;;;4998928;27;87878;-71
2022/02/04 16:44:00;;;;;;;0.53;0.40;;;8.30;99.90;8.20;99712.00;;;;4989896;27;87816;-71
2022/02/04 16:46:26;;;;;;;0.60;0.43;;;8.20;99.90;8.20;99700.00;;;;4989735;27;110479;-71
2022/02/04 16:48:51;;;;;;;0.43;0.40;;;8.20;99.90;8.20;99692.00;;;;4989793;27;107175;-71
2022/02/04 16:51:18;;;;;;;0.50;0.50;;;8.30;99.90;8.20;99699.00;;;;4989707;27;110968;-71
2022/02/04 16:53:44;;;;;;;0.73;0.60;;;8.30;99.90;8.20;99687.00;;;;5002042;27;87072;-70
2022/02/04 16:56:10;;;;;;;2.50;1.20;;;8.30;99.90;8.20;99683.00;;;;4988828;27;119015;-70
2022/02/04 16:58:36;;;;;;;1.27;1.17;;;8.20;99.90;8.10;99682.00;;;;4989630;27;88665;-70
2022/02/04 17:01:03;;;;;;;0.97;0.70;;;8.20;99.90;8.10;99671.00;;;;4990506;27;96401;-71
2022/02/04 17:03:29;;;;;;;0.57;0.40;;;8.20;99.90;8.10;99658.00;;;;4996728;27;88198;-71
2022/02/04 17:05:59;;;;;;;0.27;0.27;;;8.20;99.90;8.10;99669.00;;;;4993746;27;88890;-70
2022/02/04 17:08:36;;;;;;;1.33;0.70;;;8.20;99.90;8.10;99659.00;;;;5004074;27;88007;-71
2022/02/04 17:11:08;;;;;;;1.30;0.80;;;8.20;99.90;8.10;99667.00;;;;4994005;27;88064;-71
2022/02/04 17:13:34;;;;;;;0.70;0.60;;;8.20;99.90;8.10;99661.00;;;;4993842;27;87915;-70
2022/02/04 17:16:00;;;;;;;0.63;0.50;;;8.20;99.90;8.10;99664.00;;;;4993258;27;88530;-71
2022/02/04 17:18:26;;;;;;;0.50;0.50;;;8.20;99.90;8.10;99660.00;;;;4993677;27;88457;-70
2022/02/04 17:20:52;;;;;;;0.63;0.63;;;8.20;99.90;8.10;99676.00;;;;4993463;27;87774;-70
2022/02/04 17:23:31;;;;;;;0.50;0.50;;;8.20;99.90;8.10;99661.00;;;;4994556;27;88071;-70
2022/02/04 17:25:58;;;;;;;1.20;0.90;;;8.20;99.90;8.10;99684.00;;;;4992546;27;89073;-71
2022/02/04 17:28:30;;;;;;;3.17;1.87;;;8.20;99.90;8.10;99657.00;;;;4992795;27;89134;-72
2022/02/04 17:30:57;;;;;;;2.63;1.63;;;8.20;99.90;8.10;99672.00;;;;4996559;27;88876;-70
2022/02/04 17:33:25;;;;;;;2.27;2.07;;;8.20;99.90;8.10;99659.00;;;;4997255;27;88004;-70
2022/02/04 17:35:52;;;;;;;2.20;1.57;;;8.20;99.90;8.10;99661.00;;;;4999625;27;103867;-69